Time;durP1;ratioP1;P1;durP2;ratioP2;P2;SDS_P1;SDS_P2;PMS_P1;PMS_P2;Temp;Humidity;BMP_temperature;BMP_pressure;BME280_temperature;BME280_humidity;BME280_pressure;Samples;Min_cycle;Max_cycle;Signal;HPM_P1;HPM_P2
2020/12/29 00:00:52;;;;;;;14.30;8.25;;;3.50;88.30;;;;;;5039865;28;20060;-60
2020/12/29 00:03:18;;;;;;;17.15;9.50;;;3.50;88.30;;;;;;5025020;28;20060;-60
2020/12/29 00:05:45;;;;;;;15.15;8.95;;;3.50;88.70;;;;;;5033267;28;20029;-60
2020/12/29 00:08:11;;;;;;;16.60;9.27;;;3.50;88.50;;;;;;5008652;28;20112;-60
2020/12/29 00:10:38;;;;;;;14.77;8.68;;;3.50;88.50;;;;;;5026535;28;20033;-60
2020/12/29 00:13:04;;;;;;;14.38;8.52;;;3.50;88.70;;;;;;5038839;28;20048;-60
2020/12/29 00:15:30;;;;;;;15.20;9.07;;;3.50;88.60;;;;;;5037730;28;20059;-60
2020/12/29 00:17:55;;;;;;;16.58;9.27;;;3.50;88.60;;;;;;5031440;28;20104;-60
2020/12/29 00:20:21;;;;;;;18.55;9.45;;;3.50;89.20;;;;;;5030051;28;20125;-60
2020/12/29 00:22:47;;;;;;;16.80;9.25;;;3.50;89.20;;;;;;5020293;28;20040;-60
2020/12/29 00:25:16;;;;;;;15.93;8.88;;;3.50;88.80;;;;;;5025904;28;20045;-61
2020/12/29 00:27:41;;;;;;;15.85;9.63;;;3.50;89.20;;;;;;5035942;28;20040;-60
2020/12/29 00:30:07;;;;;;;15.43;9.55;;;3.50;88.90;;;;;;5024707;28;20025;-60
2020/12/29 00:32:33;;;;;;;;;;;3.50;89.40;;;;;;5032732;28;20061;-60
2020/12/29 00:34:59;;;;;;;15.15;8.38;;;3.50;89.10;;;;;;5023297;28;19920;-60
2020/12/29 00:37:24;;;;;;;16.85;9.52;;;3.50;89.50;;;;;;5031919;28;20037;-60
2020/12/29 00:39:50;;;;;;;17.95;9.10;;;3.50;89.60;;;;;;5004886;28;20132;-60
2020/12/29 00:42:16;;;;;;;16.23;8.48;;;3.50;89.60;;;;;;5030698;28;20702;-61
2020/12/29 00:44:41;;;;;;;17.33;8.98;;;3.50;90.00;;;;;;5028503;28;20038;-60
2020/12/29 00:47:07;;;;;;;16.00;8.60;;;3.50;89.80;;;;;;5008567;28;20053;-60
2020/12/29 00:49:37;;;;;;;17.35;9.52;;;3.50;89.70;;;;;;5031402;28;20041;-60
2020/12/29 00:52:03;;;;;;;17.02;9.38;;;3.50;89.80;;;;;;5038256;28;20067;-60
2020/12/29 00:54:38;;;;;;;17.33;9.68;;;3.60;90.00;;;;;;5021863;28;20412;-60
2020/12/29 00:57:04;;;;;;;17.80;9.73;;;3.60;90.40;;;;;;5011802;28;20033;-60
2020/12/29 00:59:31;;;;;;;16.55;9.50;;;3.60;90.20;;;;;;5025815;28;20405;-60
2020/12/29 01:01:57;;;;;;;17.48;8.93;;;3.60;90.10;;;;;;5034188;28;20025;-60
2020/12/29 01:04:49;;;;;;;19.90;9.38;;;3.60;90.30;;;;;;4999850;28;20846;-61
2020/12/29 01:07:15;;;;;;;18.95;9.35;;;3.60;90.50;;;;;;5016355;28;20033;-60
2020/12/29 01:09:41;;;;;;;16.50;9.13;;;3.60;90.50;;;;;;5020573;28;20030;-60
2020/12/29 01:12:07;;;;;;;13.63;7.85;;;3.60;90.30;;;;;;5010239;28;20068;-60
2020/12/29 01:14:33;;;;;;;17.00;8.90;;;3.60;90.20;;;;;;5007931;28;20746;-60
2020/12/29 01:17:08;;;;;;;18.67;9.57;;;3.70;90.40;;;;;;5008847;28;20120;-60
2020/12/29 01:19:33;;;;;;;15.13;8.70;;;3.70;90.20;;;;;;5025980;28;20041;-61
2020/12/29 01:21:59;;;;;;;18.02;9.73;;;3.70;90.30;;;;;;5031923;28;20040;-60
2020/12/29 01:24:25;;;;;;;18.27;9.25;;;3.70;90.30;;;;;;5031194;28;20072;-60
2020/12/29 01:26:50;;;;;;;21.38;9.63;;;3.70;90.10;;;;;;5025618;28;20108;-60
2020/12/29 01:29:16;;;;;;;16.30;9.07;;;3.70;90.00;;;;;;5024500;28;20538;-60
2020/12/29 01:31:42;;;;;;;17.67;8.95;;;3.80;90.30;;;;;;5027424;28;20134;-60
2020/12/29 01:34:07;;;;;;;19.65;10.50;;;3.80;90.10;;;;;;5030251;28;20033;-60
2020/12/29 01:36:33;;;;;;;14.70;8.68;;;3.80;90.10;;;;;;5026058;28;20041;-60
2020/12/29 01:38:59;;;;;;;19.52;9.98;;;3.80;90.00;;;;;;5014424;28;20037;-60
2020/12/29 01:41:24;;;;;;;17.30;9.50;;;3.80;90.30;;;;;;5028161;28;20072;-60
2020/12/29 01:43:51;;;;;;;20.38;10.52;;;3.80;90.00;;;;;;5034389;28;20484;-61
2020/12/29 01:46:17;;;;;;;16.98;10.18;;;3.80;89.70;;;;;;5028765;28;20653;-60
2020/12/29 01:48:43;;;;;;;17.55;9.77;;;3.80;89.90;;;;;;5026121;28;20421;-60
2020/12/29 01:51:09;;;;;;;17.40;9.35;;;3.80;90.10;;;;;;5029054;28;20040;-61
2020/12/29 01:53:39;;;;;;;16.05;9.73;;;3.80;90.10;;;;;;5028109;28;20074;-60
2020/12/29 01:56:10;;;;;;;19.42;10.15;;;3.80;90.10;;;;;;5022647;28;20056;-60
2020/12/29 01:58:39;;;;;;;18.30;9.40;;;3.80;89.80;;;;;;5032677;28;20033;-60
2020/12/29 02:01:05;;;;;;;18.92;10.23;;;3.90;90.00;;;;;;5022307;28;20960;-60
2020/12/29 02:03:31;;;;;;;17.83;10.60;;;3.80;90.00;;;;;;5025512;28;20040;-60
2020/12/29 02:05:57;;;;;;;18.00;10.50;;;3.80;90.00;;;;;;5033502;28;20730;-60
2020/12/29 02:08:25;;;;;;;18.33;9.65;;;3.80;90.00;;;;;;5032605;28;20045;-60
2020/12/29 02:10:53;;;;;;;19.23;10.55;;;3.80;90.10;;;;;;5022149;28;20775;-61
2020/12/29 02:13:19;;;;;;;25.45;11.57;;;3.80;90.10;;;;;;5023853;28;20076;-60
2020/12/29 02:15:44;;;;;;;22.02;10.73;;;3.90;90.20;;;;;;5025335;28;20831;-61
2020/12/29 02:18:10;;;;;;;20.20;10.98;;;3.90;90.30;;;;;;5007701;28;20040;-61
2020/12/29 02:20:35;;;;;;;20.35;10.70;;;3.90;90.30;;;;;;5030447;28;20391;-60
2020/12/29 02:23:01;;;;;;;17.55;10.40;;;3.90;90.20;;;;;;5033747;28;20059;-60
2020/12/29 02:25:27;;;;;;;21.38;11.50;;;3.90;90.10;;;;;;5039496;28;20060;-60
2020/12/29 02:27:53;;;;;;;19.50;10.52;;;3.80;90.20;;;;;;5010575;28;20561;-60
2020/12/29 02:30:19;;;;;;;22.48;12.18;;;3.70;90.40;;;;;;5009843;28;20040;-60
2020/12/29 02:32:46;;;;;;;20.58;10.60;;;3.70;90.30;;;;;;5025961;28;20037;-60
2020/12/29 02:35:15;;;;;;;22.77;11.27;;;3.70;90.40;;;;;;5013428;28;20033;-61
2020/12/29 02:37:41;;;;;;;20.35;12.15;;;3.70;90.40;;;;;;5023504;28;20037;-60
2020/12/29 02:40:06;;;;;;;21.88;12.02;;;3.70;90.30;;;;;;5015144;28;20021;-60
2020/12/29 02:42:32;;;;;;;;;;;3.70;90.30;;;;;;5027160;28;20852;-60
2020/12/29 02:44:58;;;;;;;19.60;9.88;;;3.80;90.10;;;;;;5023045;28;19905;-60
2020/12/29 02:47:23;;;;;;;21.70;11.15;;;3.80;90.10;;;;;;5022945;28;20739;-61
2020/12/29 02:49:49;;;;;;;24.42;11.55;;;3.80;90.10;;;;;;5024378;28;20083;-60
2020/12/29 02:52:14;;;;;;;24.05;11.95;;;3.80;90.10;;;;;;5023226;28;20040;-60
2020/12/29 02:54:40;;;;;;;24.02;12.23;;;3.80;90.10;;;;;;5030586;28;20029;-60
2020/12/29 02:57:06;;;;;;;19.10;11.35;;;3.80;90.20;;;;;;5023082;28;20029;-60
2020/12/29 02:59:31;;;;;;;;;;;3.80;90.10;;;;;;5024475;28;20040;-58
2020/12/29 03:01:58;;;;;;;20.58;10.90;;;3.80;89.90;;;;;;5027585;28;19988;-60
2020/12/29 03:04:24;;;;;;;23.15;12.90;;;3.80;90.00;;;;;;5008512;28;20136;-60
2020/12/29 03:06:49;;;;;;;23.42;12.23;;;3.90;89.90;;;;;;5030835;28;20031;-60
2020/12/29 03:09:16;;;;;;;21.58;11.57;;;3.90;89.70;;;;;;5028172;28;20060;-59
2020/12/29 03:11:43;;;;;;;22.95;12.60;;;3.80;89.90;;;;;;5025707;28;20033;-60
2020/12/29 03:14:09;;;;;;;20.95;11.05;;;3.80;89.80;;;;;;5033238;28;20041;-60
2020/12/29 03:16:36;;;;;;;24.15;12.73;;;3.80;89.80;;;;;;5025287;28;20044;-61
2020/12/29 03:19:02;;;;;;;24.13;12.70;;;3.80;89.10;;;;;;5021420;28;20026;-61
2020/12/29 03:21:28;;;;;;;23.92;12.60;;;3.80;89.30;;;;;;5030183;28;20053;-60
2020/12/29 03:23:54;;;;;;;23.40;12.32;;;3.80;89.60;;;;;;5024079;28;20033;-61
2020/12/29 03:26:19;;;;;;;27.23;13.02;;;3.80;89.60;;;;;;5025000;28;20099;-61
2020/12/29 03:28:45;;;;;;;23.30;12.07;;;3.80;89.20;;;;;;5034635;28;20407;-60
2020/12/29 03:31:11;;;;;;;19.70;11.77;;;3.80;89.20;;;;;;5031079;28;20040;-60
2020/12/29 03:33:37;;;;;;;21.55;12.88;;;3.80;89.40;;;;;;5043078;28;20032;-60
2020/12/29 03:36:03;;;;;;;22.48;13.05;;;3.70;89.40;;;;;;5033093;28;20044;-60
2020/12/29 03:38:29;;;;;;;23.90;12.52;;;3.70;89.40;;;;;;5031700;28;20068;-60
2020/12/29 03:40:55;;;;;;;20.40;11.32;;;3.70;89.60;;;;;;5034164;28;20082;-60
2020/12/29 03:43:21;;;;;;;23.23;12.95;;;3.70;89.60;;;;;;5026476;28;20021;-60
2020/12/29 03:45:48;;;;;;;22.27;12.73;;;3.70;89.80;;;;;;5035580;28;20067;-61
2020/12/29 03:48:16;;;;;;;23.95;13.57;;;3.70;89.50;;;;;;5042849;28;20037;-60
2020/12/29 03:50:43;;;;;;;24.38;13.70;;;3.80;89.40;;;;;;5042389;28;20032;-60
2020/12/29 03:53:09;;;;;;;25.35;14.00;;;3.80;89.50;;;;;;5031119;28;20041;-60
2020/12/29 03:55:36;;;;;;;28.52;13.35;;;3.80;89.50;;;;;;5014473;28;20044;-60
2020/12/29 03:58:03;;;;;;;26.65;14.45;;;3.80;89.80;;;;;;5026628;28;20341;-60
2020/12/29 04:00:28;;;;;;;27.60;13.55;;;3.80;89.60;;;;;;5037668;28;20790;-61
2020/12/29 04:02:54;;;;;;;25.15;12.85;;;3.80;89.40;;;;;;5033451;28;20106;-60
2020/12/29 04:05:20;;;;;;;25.35;13.80;;;3.90;89.50;;;;;;5026106;28;20036;-60
2020/12/29 04:07:46;;;;;;;26.42;12.93;;;3.90;89.20;;;;;;5027495;28;20127;-60
2020/12/29 04:10:12;;;;;;;23.75;12.88;;;3.90;89.20;;;;;;5026332;28;20716;-60
2020/12/29 04:12:38;;;;;;;25.00;13.18;;;3.90;89.20;;;;;;5027699;28;20853;-60
2020/12/29 04:15:05;;;;;;;24.98;12.95;;;3.80;89.10;;;;;;5025139;28;20104;-58
2020/12/29 04:17:41;;;;;;;25.40;13.88;;;3.70;89.50;;;;;;5026472;28;20075;-60
2020/12/29 04:20:11;;;;;;;24.65;13.93;;;3.60;89.80;;;;;;5022562;28;20578;-57
2020/12/29 04:22:38;;;;;;;25.30;14.18;;;3.60;90.00;;;;;;5033422;28;20111;-60
2020/12/29 04:25:05;;;;;;;26.23;14.98;;;3.60;90.00;;;;;;5029279;28;20044;-60
2020/12/29 04:27:31;;;;;;;23.85;13.13;;;3.60;90.00;;;;;;5035608;28;20479;-60
2020/12/29 04:29:57;;;;;;;24.70;13.95;;;3.50;89.80;;;;;;5032208;28;20037;-60
2020/12/29 04:32:22;;;;;;;;;;;3.50;90.00;;;;;;5025416;28;20127;-60
2020/12/29 04:34:48;;;;;;;26.63;14.02;;;3.50;89.80;;;;;;5033625;28;19913;-60
2020/12/29 04:37:15;;;;;;;26.45;12.98;;;3.30;90.10;;;;;;5030514;28;20079;-60
2020/12/29 04:39:43;;;;;;;21.50;13.38;;;3.20;90.30;;;;;;5019440;28;20033;-60
2020/12/29 04:42:13;;;;;;;27.98;15.07;;;3.10;90.50;;;;;;5041790;28;20040;-60
2020/12/29 04:44:40;;;;;;;27.35;15.18;;;3.10;90.60;;;;;;5026749;28;20093;-60
2020/12/29 04:47:10;;;;;;;26.70;14.98;;;3.00;90.60;;;;;;5024746;28;20428;-64
2020/12/29 04:49:36;;;;;;;26.17;14.80;;;3.00;90.70;;;;;;5031573;28;20047;-63
2020/12/29 04:52:04;;;;;;;24.60;13.88;;;2.90;91.10;;;;;;5007542;28;20041;-64
2020/12/29 04:54:35;;;;;;;29.10;14.68;;;2.90;91.00;;;;;;5021707;28;20464;-63
2020/12/29 04:57:03;;;;;;;25.77;14.98;;;2.80;91.00;;;;;;4991318;28;20506;-64
2020/12/29 04:59:32;;;;;;;26.80;14.65;;;2.80;91.20;;;;;;5032472;28;20567;-63
2020/12/29 05:01:58;;;;;;;23.20;14.25;;;2.80;91.00;;;;;;5025786;28;20083;-64
2020/12/29 05:04:24;;;;;;;30.70;16.52;;;2.80;91.20;;;;;;5025244;28;20609;-66
2020/12/29 05:06:51;;;;;;;31.60;15.45;;;2.80;91.10;;;;;;5026510;28;20064;-63
2020/12/29 05:09:19;;;;;;;33.10;17.80;;;2.70;91.10;;;;;;5032231;28;20083;-63
2020/12/29 05:11:45;;;;;;;27.08;14.30;;;2.70;91.10;;;;;;5027144;28;20055;-62
2020/12/29 05:14:11;;;;;;;29.70;16.23;;;2.60;91.30;;;;;;5032256;28;20044;-63
2020/12/29 05:16:38;;;;;;;28.42;15.07;;;2.60;91.40;;;;;;5032529;28;20039;-63
2020/12/29 05:19:06;;;;;;;27.50;14.73;;;2.60;91.40;;;;;;5032686;28;20070;-63
2020/12/29 05:21:34;;;;;;;24.67;13.93;;;2.60;91.60;;;;;;5035580;28;20033;-60
2020/12/29 05:24:22;;;;;;;31.70;16.02;;;2.70;91.40;;;;;;5025560;28;20029;-60
2020/12/29 05:26:56;;;;;;;27.58;15.23;;;2.70;91.30;;;;;;5002982;28;20760;-60
2020/12/29 05:29:23;;;;;;;28.60;14.38;;;2.70;91.50;;;;;;5009115;28;20373;-59
2020/12/29 05:31:49;;;;;;;26.38;14.43;;;2.70;91.00;;;;;;5024662;28;20029;-60
2020/12/29 05:34:19;;;;;;;25.05;13.85;;;2.70;91.10;;;;;;5025767;28;20029;-60
2020/12/29 05:36:45;;;;;;;32.17;15.55;;;2.60;91.00;;;;;;5025695;28;20131;-60
2020/12/29 05:39:11;;;;;;;28.60;14.27;;;2.50;91.10;;;;;;5024790;28;20119;-60
2020/12/29 05:41:40;;;;;;;25.60;14.32;;;2.50;91.30;;;;;;5033283;28;20032;-60
2020/12/29 05:44:07;;;;;;;30.95;15.80;;;2.50;91.30;;;;;;5028552;28;20028;-60
2020/12/29 05:46:33;;;;;;;30.23;15.38;;;2.50;91.10;;;;;;5026438;28;20037;-60
2020/12/29 05:49:00;;;;;;;29.27;15.68;;;2.50;91.10;;;;;;5026557;28;20108;-60
2020/12/29 05:51:27;;;;;;;27.33;15.07;;;2.50;91.20;;;;;;5028212;28;20116;-60
2020/12/29 05:54:04;;;;;;;31.52;14.98;;;2.50;91.20;;;;;;5032240;28;20041;-60
2020/12/29 05:56:31;;;;;;;31.80;15.10;;;2.40;91.40;;;;;;5024933;28;20646;-59
2020/12/29 05:58:58;;;;;;;30.23;15.68;;;2.40;91.30;;;;;;5031204;28;20037;-60
2020/12/29 06:01:39;;;;;;;31.52;16.23;;;2.40;91.40;;;;;;5024253;28;20025;-60
2020/12/29 06:04:05;;;;;;;29.80;15.73;;;2.40;91.20;;;;;;5030722;28;20025;-60
2020/12/29 06:06:32;;;;;;;28.92;15.50;;;2.30;91.10;;;;;;5026693;28;20040;-60
2020/12/29 06:09:03;;;;;;;33.22;14.77;;;2.30;91.10;;;;;;5024337;28;20068;-60
2020/12/29 06:11:37;;;;;;;30.05;15.82;;;2.20;91.20;;;;;;5024859;28;20393;-60
2020/12/29 06:14:11;;;;;;;30.83;15.32;;;2.10;91.60;;;;;;5004259;28;20049;-59
2020/12/29 06:16:40;;;;;;;29.70;15.43;;;2.00;91.80;;;;;;5023099;28;20112;-60
2020/12/29 06:19:28;;;;;;;32.05;15.88;;;2.00;91.80;;;;;;5027743;28;20131;-60
2020/12/29 06:22:03;;;;;;;29.08;15.38;;;2.00;91.90;;;;;;5035633;28;20071;-60
2020/12/29 06:24:30;;;;;;;29.85;15.05;;;2.10;91.90;;;;;;5033152;28;20512;-60
2020/12/29 06:27:00;;;;;;;27.00;14.63;;;2.10;91.70;;;;;;5035156;28;20032;-60
2020/12/29 06:29:31;;;;;;;25.67;13.20;;;2.10;91.80;;;;;;5028729;28;20041;-60
2020/12/29 06:31:57;;;;;;;29.52;14.48;;;2.10;91.60;;;;;;5023201;28;20734;-60
2020/12/29 06:34:22;;;;;;;25.77;13.68;;;2.00;91.80;;;;;;5030000;28;20033;-60
2020/12/29 06:36:49;;;;;;;;;;;2.10;91.70;;;;;;5027460;28;20059;-60
2020/12/29 06:39:17;;;;;;;28.02;13.35;;;2.10;91.50;;;;;;5021976;28;19956;-60
2020/12/29 06:41:43;;;;;;;25.63;14.07;;;2.10;91.80;;;;;;5021720;28;20025;-60
2020/12/29 06:44:13;;;;;;;25.50;13.95;;;2.00;91.60;;;;;;5019952;28;20662;-60
2020/12/29 06:46:39;;;;;;;23.73;13.82;;;2.10;91.40;;;;;;5026422;28;20036;-60
2020/12/29 06:49:21;;;;;;;29.77;15.68;;;2.10;91.20;;;;;;5027578;28;20069;-61
2020/12/29 06:52:08;;;;;;;27.17;14.75;;;2.00;91.00;;;;;;5024693;28;20116;-60
2020/12/29 06:54:47;;;;;;;22.40;13.48;;;2.00;91.20;;;;;;5023491;28;20041;-60
2020/12/29 06:57:14;;;;;;;32.38;15.68;;;1.90;91.40;;;;;;5020555;28;20090;-61
2020/12/29 06:59:41;;;;;;;27.17;14.70;;;1.90;91.60;;;;;;5028424;28;20028;-61
2020/12/29 07:02:23;;;;;;;29.70;15.63;;;1.80;91.50;;;;;;5009497;28;20033;-60
2020/12/29 07:04:53;;;;;;;29.63;15.73;;;1.80;91.60;;;;;;5037775;28;20106;-60
2020/12/29 07:07:27;;;;;;;30.75;17.20;;;1.80;91.60;;;;;;5035440;28;20033;-61
2020/12/29 07:10:09;;;;;;;25.10;15.20;;;1.80;91.60;;;;;;5028168;28;20041;-59
2020/12/29 07:12:35;;;;;;;26.65;13.60;;;1.80;91.70;;;;;;5029387;28;20036;-60
2020/12/29 07:15:04;;;;;;;22.08;12.05;;;1.80;91.60;;;;;;5040701;28;20616;-60
2020/12/29 07:17:31;;;;;;;22.75;12.30;;;1.80;91.80;;;;;;5029896;28;20037;-60
2020/12/29 07:19:57;;;;;;;23.02;12.73;;;1.80;91.60;;;;;;5027633;28;20042;-60
2020/12/29 07:22:24;;;;;;;23.40;12.32;;;1.80;91.80;;;;;;5026149;28;20542;-60
2020/12/29 07:24:50;;;;;;;22.85;12.23;;;1.90;91.80;;;;;;5027307;28;20088;-61
2020/12/29 07:27:20;;;;;;;25.58;13.02;;;1.80;91.70;;;;;;5036847;28;20027;-63
2020/12/29 07:29:59;;;;;;;23.60;12.27;;;1.90;91.70;;;;;;5030605;28;20035;-60
2020/12/29 07:32:25;;;;;;;24.23;12.18;;;1.90;91.60;;;;;;5029258;28;20460;-60
2020/12/29 07:34:52;;;;;;;23.70;12.50;;;1.90;91.80;;;;;;5031505;28;20068;-60
2020/12/29 07:37:22;;;;;;;23.80;12.57;;;2.00;91.70;;;;;;5022328;28;20780;-60
2020/12/29 07:39:48;;;;;;;25.00;13.18;;;2.00;91.60;;;;;;5030589;28;20033;-63
2020/12/29 07:42:14;;;;;;;25.23;12.93;;;2.00;91.50;;;;;;5035347;28;20033;-61
2020/12/29 07:44:42;;;;;;;23.13;12.65;;;2.00;91.50;;;;;;5027364;28;20132;-61
2020/12/29 07:47:08;;;;;;;26.67;13.73;;;2.10;91.50;;;;;;5031790;28;20036;-61
2020/12/29 07:49:34;;;;;;;24.67;14.55;;;2.10;91.30;;;;;;5006000;28;20485;-61
2020/12/29 07:52:00;;;;;;;30.63;16.27;;;2.20;91.30;;;;;;5023461;28;20029;-62
2020/12/29 07:54:26;;;;;;;26.00;14.30;;;2.20;91.10;;;;;;5022583;28;20069;-62
2020/12/29 07:56:52;;;;;;;25.67;14.40;;;2.20;91.10;;;;;;5024945;28;20060;-62
2020/12/29 07:59:21;;;;;;;23.73;13.10;;;2.20;91.20;;;;;;5032064;28;20034;-62
2020/12/29 08:01:55;;;;;;;22.27;12.23;;;2.30;91.10;;;;;;5024154;28;20047;-62
2020/12/29 08:04:25;;;;;;;18.80;10.75;;;2.30;91.00;;;;;;5024162;28;20033;-62
2020/12/29 08:06:51;;;;;;;21.30;10.90;;;2.30;91.30;;;;;;5032278;28;20802;-61
2020/12/29 08:09:16;;;;;;;22.08;11.32;;;2.40;91.00;;;;;;5027871;28;20025;-64
2020/12/29 08:11:43;;;;;;;20.08;12.18;;;2.40;90.90;;;;;;5026417;28;20128;-64
2020/12/29 08:14:11;;;;;;;18.60;11.82;;;2.50;91.00;;;;;;5025802;28;20075;-68
2020/12/29 08:16:38;;;;;;;21.17;11.70;;;2.50;90.80;;;;;;5006824;28;20045;-66
2020/12/29 08:19:09;;;;;;;19.55;11.48;;;2.60;90.70;;;;;;5031510;28;20025;-66
2020/12/29 08:21:35;;;;;;;19.17;10.82;;;2.60;90.70;;;;;;5027669;28;20045;-65
2020/12/29 08:24:01;;;;;;;19.42;11.10;;;2.70;90.80;;;;;;5008490;28;20773;-66
2020/12/29 08:26:27;;;;;;;21.38;11.75;;;2.80;90.60;;;;;;5023140;28;20091;-66
2020/12/29 08:28:53;;;;;;;21.15;11.70;;;2.90;90.60;;;;;;5030853;28;20585;-66
2020/12/29 08:31:23;;;;;;;21.13;11.98;;;3.00;90.50;;;;;;5026699;28;20805;-66
2020/12/29 08:33:53;;;;;;;22.92;12.07;;;3.10;90.30;;;;;;5023891;28;20064;-62
2020/12/29 08:36:27;;;;;;;21.75;12.18;;;3.10;90.10;;;;;;5031099;28;20041;-63
2020/12/29 08:39:37;;;;;;;19.45;10.10;;;3.20;89.80;;;;;;5026621;28;20715;-62
2020/12/29 08:42:03;;;;;;;19.67;11.48;;;3.30;89.90;;;;;;4964130;28;20498;-62
2020/12/29 08:44:31;;;;;;;19.77;11.25;;;3.40;89.90;;;;;;4964037;28;20121;-60
2020/12/29 08:46:56;;;;;;;31.67;15.02;;;3.50;89.80;;;;;;4998100;28;20045;-62
2020/12/29 08:49:29;;;;;;;17.38;10.57;;;3.50;88.20;;;;;;5028669;28;20033;-62
2020/12/29 08:51:56;;;;;;;19.52;10.80;;;3.60;88.80;;;;;;5028044;28;20025;-62
2020/12/29 08:54:22;;;;;;;17.85;10.43;;;3.70;88.60;;;;;;5028412;28;20037;-60
2020/12/29 08:56:48;;;;;;;16.88;10.10;;;3.70;88.50;;;;;;5025521;28;20033;-62
2020/12/29 08:59:15;;;;;;;16.35;9.60;;;3.80;88.20;;;;;;5022732;28;20044;-62
2020/12/29 09:01:42;;;;;;;20.27;11.57;;;3.90;87.90;;;;;;5027272;28;20763;-62
2020/12/29 09:04:34;;;;;;;23.10;11.35;;;4.00;87.40;;;;;;5023394;28;20168;-62
2020/12/29 09:07:12;;;;;;;17.63;9.82;;;4.00;86.90;;;;;;5025649;28;20533;-61
2020/12/29 09:09:50;;;;;;;18.08;9.90;;;4.00;87.10;;;;;;5025321;28;20095;-61
2020/12/29 09:12:18;;;;;;;19.85;10.68;;;4.00;86.70;;;;;;5025806;28;20044;-62
2020/12/29 09:15:02;;;;;;;17.10;9.98;;;4.10;86.40;;;;;;5033601;28;20064;-59
2020/12/29 09:17:55;;;;;;;18.48;10.20;;;4.20;85.40;;;;;;5026401;28;20041;-62
2020/12/29 09:20:28;;;;;;;16.48;9.13;;;4.60;85.00;;;;;;5026817;28;20049;-63
2020/12/29 09:23:03;;;;;;;18.27;9.95;;;6.20;78.80;;;;;;5019345;28;20087;-62
2020/12/29 09:25:33;;;;;;;15.75;9.85;;;8.80;67.90;;;;;;5027485;28;20136;-62
2020/12/29 09:28:17;;;;;;;14.25;8.75;;;11.00;57.90;;;;;;5022552;28;20068;-62
2020/12/29 09:30:56;;;;;;;13.88;8.57;;;13.40;50.70;;;;;;5024205;28;20064;-62
2020/12/29 09:33:22;;;;;;;12.25;7.70;;;15.60;45.00;;;;;;5030639;28;20076;-61
2020/12/29 09:35:49;;;;;;;13.60;8.23;;;17.40;40.80;;;;;;5032354;28;20129;-60
2020/12/29 09:38:15;;;;;;;10.73;6.82;;;18.20;38.30;;;;;;5023616;28;20101;-60
2020/12/29 09:40:41;;;;;;;10.55;7.15;;;18.30;37.80;;;;;;5022607;28;20045;-60
2020/12/29 09:43:07;;;;;;;11.70;8.20;;;18.20;38.40;;;;;;5030753;28;20095;-59
2020/12/29 09:45:33;;;;;;;11.88;7.30;;;17.20;38.60;;;;;;5026648;28;20116;-60
2020/12/29 09:47:58;;;;;;;11.82;7.78;;;14.80;43.30;;;;;;5027660;28;20022;-60
2020/12/29 09:50:24;;;;;;;16.52;8.40;;;12.30;49.10;;;;;;5030981;28;20466;-60
2020/12/29 09:52:49;;;;;;;12.40;8.32;;;10.70;54.10;;;;;;5024743;28;20037;-60
2020/12/29 09:55:15;;;;;;;13.05;8.63;;;9.80;58.20;;;;;;5033138;28;20043;-60
2020/12/29 09:57:41;;;;;;;14.65;8.63;;;9.10;60.70;;;;;;5030620;28;20037;-60
2020/12/29 10:00:08;;;;;;;14.45;8.32;;;8.60;63.00;;;;;;5027837;28;20017;-63
2020/12/29 10:02:39;;;;;;;13.70;8.45;;;8.20;65.00;;;;;;5028086;28;20184;-63
2020/12/29 10:05:05;;;;;;;14.07;9.15;;;7.80;66.50;;;;;;5024135;28;20732;-61
2020/12/29 10:07:31;;;;;;;15.93;8.52;;;7.10;67.60;;;;;;5030509;28;20029;-62
2020/12/29 10:09:56;;;;;;;13.93;8.20;;;6.70;69.50;;;;;;5008849;28;20037;-62
2020/12/29 10:12:22;;;;;;;13.25;7.88;;;6.30;72.00;;;;;;5028078;28;20048;-62
2020/12/29 10:14:48;;;;;;;13.10;8.50;;;6.00;73.10;;;;;;5025376;28;20041;-62
2020/12/29 10:17:14;;;;;;;13.23;8.25;;;5.60;74.50;;;;;;5021146;28;20033;-62
2020/12/29 10:19:39;;;;;;;12.45;7.57;;;5.50;75.40;;;;;;5034707;28;20556;-62
2020/12/29 10:22:05;;;;;;;14.00;8.48;;;5.40;76.10;;;;;;5022241;28;20033;-62
2020/12/29 10:24:31;;;;;;;13.93;8.68;;;5.50;76.10;;;;;;5008781;28;20072;-62
2020/12/29 10:26:57;;;;;;;16.05;8.40;;;5.60;75.60;;;;;;5034163;28;20033;-62
2020/12/29 10:29:24;;;;;;;13.32;8.15;;;5.80;75.80;;;;;;5024786;28;20033;-62
2020/12/29 10:31:49;;;;;;;14.45;8.98;;;5.90;74.90;;;;;;5005332;28;20116;-61
2020/12/29 10:34:16;;;;;;;14.13;8.45;;;6.00;74.80;;;;;;5022476;28;20037;-61
2020/12/29 10:36:43;;;;;;;13.90;8.02;;;6.20;74.90;;;;;;5023257;28;20120;-62
2020/12/29 10:39:09;;;;;;;13.05;8.13;;;6.20;74.40;;;;;;5024306;28;20037;-62
2020/12/29 10:41:37;;;;;;;11.50;7.30;;;6.10;74.10;;;;;;5026103;28;20045;-62
2020/12/29 10:44:04;;;;;;;15.50;8.85;;;6.10;75.00;;;;;;5031865;28;20025;-62
2020/12/29 10:46:30;;;;;;;14.07;9.00;;;6.20;75.20;;;;;;5023639;28;20091;-63
2020/12/29 10:48:56;;;;;;;14.60;8.05;;;6.20;74.80;;;;;;5018950;28;20045;-62
2020/12/29 10:51:24;;;;;;;13.38;9.38;;;6.30;74.40;;;;;;5026678;28;20029;-61
2020/12/29 10:53:51;;;;;;;15.18;8.18;;;6.30;74.40;;;;;;5024383;28;20041;-63
2020/12/29 10:56:17;;;;;;;13.20;8.18;;;6.30;73.50;;;;;;5029532;28;20095;-63
2020/12/29 10:58:43;;;;;;;15.48;9.02;;;6.40;73.60;;;;;;5018975;28;20026;-63
2020/12/29 11:01:13;;;;;;;14.05;8.48;;;6.50;73.80;;;;;;5028535;28;20032;-62
2020/12/29 11:03:38;;;;;;;13.68;8.20;;;6.40;73.50;;;;;;5029241;28;20738;-62
2020/12/29 11:06:19;;;;;;;14.25;8.43;;;6.40;74.00;;;;;;5031352;28;20033;-62
2020/12/29 11:08:45;;;;;;;14.38;8.45;;;6.50;73.90;;;;;;5029437;28;20033;-62
2020/12/29 11:11:15;;;;;;;12.27;8.00;;;6.50;74.00;;;;;;5035351;22;20037;-62
2020/12/29 11:13:41;;;;;;;14.45;8.43;;;6.60;74.60;;;;;;5018543;28;20829;-62
2020/12/29 11:16:13;;;;;;;13.57;8.13;;;6.60;74.00;;;;;;5017819;28;20040;-62
2020/12/29 11:18:39;;;;;;;11.93;7.68;;;6.70;73.80;;;;;;5015329;28;20111;-62
2020/12/29 11:21:04;;;;;;;10.98;7.15;;;6.70;73.40;;;;;;4999738;28;20735;-62
2020/12/29 11:23:30;;;;;;;12.23;7.63;;;6.70;73.60;;;;;;5017913;28;20148;-62
2020/12/29 11:25:59;;;;;;;12.65;7.22;;;6.70;73.80;;;;;;5015507;28;20140;-62
2020/12/29 11:28:25;;;;;;;11.70;7.10;;;6.70;74.20;;;;;;5013977;28;20029;-62
2020/12/29 11:30:51;;;;;;;11.88;7.03;;;6.60;74.20;;;;;;5018099;28;20505;-62
2020/12/29 11:33:17;;;;;;;13.38;8.25;;;6.70;74.40;;;;;;5018450;28;20041;-62
2020/12/29 11:35:44;;;;;;;11.68;7.40;;;6.70;74.40;;;;;;5016797;28;20040;-62
2020/12/29 11:38:09;;;;;;;12.65;7.22;;;6.80;74.30;;;;;;5017960;28;20044;-62
2020/12/29 11:40:35;;;;;;;10.45;7.10;;;6.90;74.00;;;;;;5018417;28;20087;-63
2020/12/29 11:43:01;;;;;;;9.27;6.15;;;7.00;73.70;;;;;;5017319;28;20441;-65
2020/12/29 11:45:27;;;;;;;10.02;6.82;;;7.10;74.00;;;;;;5018113;28;20033;-66
2020/12/29 11:47:53;;;;;;;12.38;7.07;;;7.10;74.20;;;;;;5021332;28;20088;-66
2020/12/29 11:50:18;;;;;;;10.60;6.85;;;7.10;74.40;;;;;;5021148;28;20049;-65
2020/12/29 11:52:44;;;;;;;10.05;6.72;;;7.10;74.50;;;;;;5021578;28;20073;-65
2020/12/29 11:55:10;;;;;;;13.35;7.45;;;7.10;74.80;;;;;;5018991;28;20076;-66
2020/12/29 11:57:36;;;;;;;9.40;6.45;;;7.20;74.30;;;;;;5021433;28;20041;-66
2020/12/29 12:00:05;;;;;;;10.70;6.90;;;7.30;73.80;;;;;;5020842;28;20030;-65
2020/12/29 12:02:37;;;;;;;12.75;7.45;;;7.30;72.80;;;;;;5021357;28;20033;-66
2020/12/29 12:05:03;;;;;;;14.13;7.43;;;7.30;73.30;;;;;;4999619;28;20029;-66
2020/12/29 12:07:28;;;;;;;10.10;6.40;;;7.20;73.20;;;;;;5021600;28;20037;-65
2020/12/29 12:09:54;;;;;;;10.27;6.97;;;7.20;73.80;;;;;;5020551;28;20084;-65
2020/12/29 12:12:20;;;;;;;13.82;7.90;;;7.20;74.70;;;;;;5020729;28;20936;-65
2020/12/29 12:14:45;;;;;;;14.65;8.48;;;7.20;73.70;;;;;;5020781;28;20033;-66
2020/12/29 12:17:11;;;;;;;11.23;7.22;;;7.30;74.50;;;;;;5019756;28;20493;-66
2020/12/29 12:19:36;;;;;;;12.55;6.82;;;7.50;74.80;;;;;;5020607;28;20044;-66
2020/12/29 12:22:03;;;;;;;12.20;7.50;;;7.60;73.50;;;;;;5020250;28;20527;-66
2020/12/29 12:24:28;;;;;;;12.50;7.13;;;7.70;73.20;;;;;;5021066;28;20104;-66
2020/12/29 12:26:54;;;;;;;12.02;6.50;;;7.80;72.90;;;;;;5001989;28;20116;-65
2020/12/29 12:29:20;;;;;;;11.95;6.63;;;7.80;71.90;;;;;;5020701;28;20736;-65
2020/12/29 12:31:46;;;;;;;12.20;8.00;;;7.90;71.40;;;;;;5019139;28;20048;-65
2020/12/29 12:34:11;;;;;;;12.27;7.03;;;7.90;71.90;;;;;;5019944;28;20170;-66
2020/12/29 12:36:38;;;;;;;11.50;6.22;;;8.00;71.40;;;;;;5019700;28;20045;-65
2020/12/29 12:39:04;;;;;;;8.65;6.43;;;7.90;72.20;;;;;;5017713;28;20038;-66
2020/12/29 12:41:30;;;;;;;8.95;5.97;;;7.80;72.50;;;;;;5020386;28;20029;-66
2020/12/29 12:43:55;;;;;;;13.60;7.38;;;7.70;72.70;;;;;;5020376;28;20068;-65
2020/12/29 12:46:21;;;;;;;10.45;6.18;;;7.70;73.10;;;;;;5020091;28;20065;-66